Time;durP1;ratioP1;P1;durP2;ratioP2;P2;SDS_P1;SDS_P2;PMS_P1;PMS_P2;Temp;Humidity;BMP_temperature;BMP_pressure;BME280_temperature;BME280_humidity;BME280_pressure;Samples;Min_cycle;Max_cycle;Signal;HPM_P1;HPM_P2
2022/04/14 00:01:06;;;;;;;80.97;20.13;;;;;;;11.24;98.58;101982.28;4938862;28;20398;-83
2022/04/14 00:03:32;;;;;;;62.42;17.63;;;;;;;11.21;98.50;101979.75;4958496;28;20027;-83
2022/04/14 00:05:57;;;;;;;55.15;16.60;;;;;;;11.19;98.52;101976.25;4939014;28;20129;-83
2022/04/14 00:08:22;;;;;;;54.47;16.08;;;;;;;11.15;98.58;101988.72;4955214;28;20031;-83
2022/04/14 00:10:48;;;;;;;52.22;17.42;;;;;;;11.11;98.47;101987.97;4958839;28;20051;-83
2022/04/14 00:13:13;;;;;;;58.13;16.67;;;;;;;11.07;98.33;101986.31;4939481;29;20059;-83
2022/04/14 00:15:39;;;;;;;55.55;16.75;;;;;;;11.02;98.24;101995.31;4954011;28;20032;-83
2022/04/14 00:18:05;;;;;;;62.45;17.02;;;;;;;10.94;98.90;101985.78;4946061;28;20035;-83
2022/04/14 00:20:31;;;;;;;64.75;18.45;;;;;;;10.87;99.23;101978.94;4952956;29;20440;-83
2022/04/14 00:22:56;;;;;;;64.32;18.90;;;;;;;10.80;99.86;101983.50;4919898;29;20093;-82
2022/04/14 00:25:21;;;;;;;61.90;17.25;;;;;;;10.73;100.00;101981.06;4936251;28;20031;-83
2022/04/14 00:27:47;;;;;;;60.47;17.60;;;;;;;10.68;100.00;101978.56;4954577;28;20133;-83
2022/04/14 00:30:12;;;;;;;56.30;18.25;;;;;;;10.63;100.00;101972.53;4938049;28;20554;-82
2022/04/14 00:32:38;;;;;;;67.57;19.63;;;;;;;10.56;100.00;101974.47;4923163;28;20611;-83
2022/04/14 00:35:04;;;;;;;68.28;21.98;;;;;;;10.51;100.00;101970.19;4959032;28;20027;-83
2022/04/14 00:37:31;;;;;;;75.38;22.67;;;;;;;10.45;100.00;101966.78;4948303;29;20095;-83
2022/04/14 00:39:56;;;;;;;78.28;22.90;;;;;;;10.43;100.00;101971.25;4937623;28;20034;-82
2022/04/14 00:42:22;;;;;;;78.90;24.70;;;;;;;10.39;100.00;101971.41;4955211;28;20031;-83
2022/04/14 00:44:47;;;;;;;76.68;24.48;;;;;;;10.36;100.00;101977.63;4953366;28;20031;-82
2022/04/14 00:47:13;;;;;;;72.85;22.20;;;;;;;10.40;100.00;101976.63;4937167;29;20031;-83
2022/04/14 00:49:39;;;;;;;69.10;22.17;;;;;;;10.41;100.00;101964.25;4954722;28;20479;-83
2022/04/14 00:52:06;;;;;;;66.82;22.48;;;;;;;10.44;100.00;101961.53;4959159;28;20054;-82
2022/04/14 00:54:32;;;;;;;71.10;21.02;;;;;;;10.42;100.00;101960.72;4936794;28;20122;-82
2022/04/14 00:56:58;;;;;;;63.08;22.10;;;;;;;10.40;100.00;101967.84;4959024;28;20194;-82
2022/04/14 00:59:24;;;;;;;74.22;22.15;;;;;;;10.36;100.00;101974.09;4951420;28;20035;-83
2022/04/14 01:01:50;;;;;;;75.20;22.08;;;;;;;10.31;100.00;101979.50;4939532;28;20042;-84
2022/04/14 01:04:17;;;;;;;69.25;21.73;;;;;;;10.27;100.00;101973.41;4936687;29;20035;-82
2022/04/14 01:06:46;;;;;;;70.70;21.63;;;;;;;10.23;100.00;101970.88;4947183;28;20362;-82
2022/04/14 01:09:16;;;;;;;73.05;22.85;;;;;;;10.17;100.00;101972.75;4952865;28;20058;-82
2022/04/14 01:11:48;;;;;;;68.43;23.13;;;;;;;10.15;100.00;101971.94;4935043;29;20058;-82
2022/04/14 01:14:30;;;;;;;66.57;23.30;;;;;;;10.15;100.00;101979.00;4940311;28;20030;-83
2022/04/14 01:16:58;;;;;;;65.35;22.45;;;;;;;10.12;100.00;101973.78;4959774;28;20053;-82
2022/04/14 01:19:24;;;;;;;68.40;22.60;;;;;;;10.10;100.00;101988.84;4954185;28;20027;-83
2022/04/14 01:22:03;;;;;;;63.40;21.95;;;;;;;10.09;100.00;101989.72;4947416;29;20067;-84
2022/04/14 01:24:29;;;;;;;62.17;22.27;;;;;;;10.10;100.00;101981.78;4957338;28;20058;-83
2022/04/14 01:26:56;;;;;;;59.63;22.73;;;;;;;10.05;100.00;101980.13;4934959;29;20119;-82
2022/04/14 01:29:26;;;;;;;65.05;22.23;;;;;;;10.04;100.00;101984.56;4955709;28;20082;-83
2022/04/14 01:31:53;;;;;;;54.15;21.73;;;;;;;10.06;100.00;101989.81;4937232;29;20031;-84
2022/04/14 01:34:19;;;;;;;54.65;20.83;;;;;;;10.06;100.00;101995.13;4934884;29;20108;-83
2022/04/14 01:36:45;;;;;;;60.72;22.02;;;;;;;10.04;100.00;101991.63;4958368;28;20109;-83
2022/04/14 01:39:12;;;;;;;60.25;20.98;;;;;;;9.98;100.00;101992.66;4922129;28;20038;-82
2022/04/14 01:41:44;;;;;;;52.55;19.52;;;;;;;9.97;100.00;101993.56;4953577;28;20038;-84
2022/04/14 01:44:10;;;;;;;50.72;19.70;;;;;;;9.99;100.00;101995.25;4949820;28;20035;-84
2022/04/14 01:46:37;;;;;;;50.97;19.63;;;;;;;9.94;100.00;101988.34;4934491;28;20032;-82
2022/04/14 01:49:03;;;;;;;48.75;18.40;;;;;;;9.91;100.00;101986.66;4951693;28;20459;-83
2022/04/14 01:51:30;;;;;;;53.28;20.08;;;;;;;9.90;100.00;101986.66;4949696;28;20051;-83
2022/04/14 01:53:55;;;;;;;46.58;19.48;;;;;;;9.84;100.00;101990.31;4958553;28;20031;-82
2022/04/14 01:56:23;;;;;;;46.78;18.35;;;;;;;9.80;100.00;101986.88;4935878;29;20038;-82
2022/04/14 01:58:49;;;;;;;46.60;18.38;;;;;;;9.79;100.00;101992.22;4935135;28;20035;-82
2022/04/14 02:01:15;;;;;;;43.58;19.00;;;;;;;9.76;100.00;102001.09;4957150;28;20135;-82
2022/04/14 02:03:41;;;;;;;45.60;19.05;;;;;;;9.75;100.00;101996.69;4937684;28;20045;-82
2022/04/14 02:06:06;;;;;;;44.40;18.33;;;;;;;9.73;100.00;102002.94;4948801;28;20436;-83
2022/04/14 02:08:31;;;;;;;41.88;18.83;;;;;;;9.71;100.00;102002.97;4952655;29;20444;-83
2022/04/14 02:10:57;;;;;;;52.38;20.27;;;;;;;9.68;100.00;102003.06;4956401;28;20074;-83
2022/04/14 02:13:22;;;;;;;44.38;19.25;;;;;;;9.66;100.00;102005.72;4940720;28;20047;-82
2022/04/14 02:15:48;;;;;;;46.03;18.40;;;;;;;9.61;100.00;101998.78;4940951;29;20046;-83
2022/04/14 02:18:13;;;;;;;45.60;19.83;;;;;;;9.56;100.00;102009.47;4942171;28;20038;-82
2022/04/14 02:20:39;;;;;;;46.10;18.55;;;;;;;9.51;100.00;102013.97;4938805;29;20028;-83
2022/04/14 02:23:04;;;;;;;49.75;18.40;;;;;;;9.51;100.00;102008.69;4946168;29;20388;-82
2022/04/14 02:25:29;;;;;;;45.20;19.08;;;;;;;9.48;100.00;101998.19;4950312;28;20036;-83
2022/04/14 02:27:55;;;;;;;39.83;18.20;;;;;;;9.46;100.00;102014.09;4975926;28;20043;-83
2022/04/14 02:30:21;;;;;;;37.47;17.60;;;;;;;9.49;100.00;102006.09;4936897;28;20106;-82
2022/04/14 02:32:46;;;;;;;39.22;17.27;;;;;;;9.47;100.00;102013.16;4968277;28;20031;-83
2022/04/14 02:35:14;;;;;;;41.35;18.42;;;;;;;9.45;100.00;102008.81;4976474;28;20102;-82
2022/04/14 02:37:41;;;;;;;38.58;18.27;;;;;;;9.46;100.00;102007.91;4965082;28;20018;-82
2022/04/14 02:40:07;;;;;;;37.40;15.77;;;;;;;9.45;100.00;102003.53;4981865;28;20020;-83
2022/04/14 02:42:32;;;;;;;38.53;17.23;;;;;;;9.43;100.00;102008.00;4968051;28;20086;-82
2022/04/14 02:44:58;;;;;;;35.92;17.77;;;;;;;9.42;100.00;102011.53;4967967;28;20031;-83
2022/04/14 02:47:25;;;;;;;39.80;17.50;;;;;;;9.38;100.00;102000.16;4964301;28;20015;-82
2022/04/14 02:49:51;;;;;;;32.17;16.88;;;;;;;9.40;100.00;102002.75;4979924;28;20027;-83
2022/04/14 02:52:17;;;;;;;35.40;17.52;;;;;;;9.33;100.00;102009.94;4980247;28;20015;-82
2022/04/14 02:54:43;;;;;;;32.75;17.45;;;;;;;9.32;100.00;102005.56;4947870;28;20082;-82
2022/04/14 02:57:09;;;;;;;41.92;18.13;;;;;;;9.29;100.00;102003.84;4925909;28;20030;-82
2022/04/14 02:59:36;;;;;;;32.25;17.77;;;;;;;9.27;100.00;102007.44;4942237;28;20027;-82
2022/04/14 03:02:03;;;;;;;37.80;17.48;;;;;;;9.24;100.00;102015.44;4961505;28;20042;-83
2022/04/14 03:04:30;;;;;;;30.85;17.08;;;;;;;9.22;100.00;102004.00;4939671;28;20030;-82
2022/04/14 03:06:56;;;;;;;35.75;17.85;;;;;;;9.17;100.00;102004.97;4942927;28;20034;-83
2022/04/14 03:09:21;;;;;;;32.83;18.33;;;;;;;9.19;100.00;102002.31;4938027;28;20104;-82
2022/04/14 03:11:47;;;;;;;32.88;17.05;;;;;;;9.16;100.00;102012.94;4956774;28;20036;-83
2022/04/14 03:14:12;;;;;;;34.10;18.15;;;;;;;9.12;100.00;102016.56;4942240;29;20341;-83
2022/04/14 03:16:38;;;;;;;35.75;17.02;;;;;;;9.08;100.00;102002.53;4953826;28;20027;-83
2022/04/14 03:19:03;;;;;;;35.00;17.58;;;;;;;9.08;100.00;102010.47;4956969;28;20559;-82
2022/04/14 03:21:29;;;;;;;32.70;17.98;;;;;;;9.02;100.00;102007.94;4929357;28;20446;-81
2022/04/14 03:23:54;;;;;;;32.08;15.82;;;;;;;8.94;100.00;102007.19;4957853;28;20079;-82
2022/04/14 03:26:19;;;;;;;30.80;17.27;;;;;;;8.87;100.00;102016.16;4902024;28;20468;-83
2022/04/14 03:28:45;;;;;;;32.05;17.85;;;;;;;8.70;100.00;102017.34;4913989;28;20169;-83
2022/04/14 03:31:10;;;;;;;33.53;17.90;;;;;;;8.64;100.00;102014.81;4908474;28;20039;-83
2022/04/14 03:33:36;;;;;;;38.25;18.05;;;;;;;8.60;100.00;102015.75;4944671;28;20049;-82
2022/04/14 03:36:01;;;;;;;39.97;18.88;;;;;;;8.60;100.00;102021.03;4967195;28;20074;-82
2022/04/14 03:38:27;;;;;;;42.45;18.45;;;;;;;8.59;100.00;102024.56;4943795;28;20483;-82
2022/04/14 03:40:53;;;;;;;34.20;18.05;;;;;;;8.57;100.00;102016.69;4941372;28;20035;-82
2022/04/14 03:43:18;;;;;;;43.47;18.48;;;;;;;8.55;100.00;102025.53;4939988;28;20035;-83
2022/04/14 03:45:43;;;;;;;30.55;18.75;;;;;;;8.61;100.00;102025.44;4926025;29;20062;-82
2022/04/14 03:48:09;;;;;;;38.38;19.00;;;;;;;8.58;100.00;102023.72;4958672;28;20365;-82
2022/04/14 03:50:34;;;;;;;31.08;17.23;;;;;;;8.55;100.00;102029.03;4941842;29;20034;-82
2022/04/14 03:53:00;;;;;;;37.60;19.00;;;;;;;8.57;100.00;102018.44;4955203;29;20062;-83
2022/04/14 03:55:26;;;;;;;34.08;19.90;;;;;;;8.60;100.00;102027.19;4956934;28;20525;-83
2022/04/14 03:57:52;;;;;;;34.38;20.20;;;;;;;8.68;100.00;102025.28;4958043;28;20019;-83
2022/04/14 04:00:17;;;;;;;40.78;20.80;;;;;;;8.72;100.00;102022.59;4961906;28;20282;-83
2022/04/14 04:02:43;;;;;;;33.58;19.02;;;;;;;8.76;100.00;102013.69;4944788;28;20046;-82
2022/04/14 04:05:09;;;;;;;36.90;19.65;;;;;;;8.75;100.00;102025.19;4955209;28;20043;-82
2022/04/14 04:07:35;;;;;;;36.17;19.50;;;;;;;8.75;100.00;102025.19;4940585;28;20578;-82
2022/04/14 04:10:00;;;;;;;35.92;19.63;;;;;;;8.75;100.00;102033.97;4941028;28;20118;-82
2022/04/14 04:12:27;;;;;;;33.90;20.00;;;;;;;8.74;100.00;102023.44;4954741;28;20411;-82
2022/04/14 04:14:52;;;;;;;31.73;19.00;;;;;;;8.72;100.00;102020.84;4955530;28;20027;-82
2022/04/14 04:17:18;;;;;;;34.67;19.23;;;;;;;8.71;100.00;102031.41;4939926;28;20118;-83
2022/04/14 04:19:43;;;;;;;40.67;20.60;;;;;;;8.69;100.00;102026.16;4944314;28;20038;-82
2022/04/14 04:22:10;;;;;;;33.80;19.90;;;;;;;8.65;100.00;102020.03;4920971;28;20050;-82
2022/04/14 04:24:36;;;;;;;39.85;19.95;;;;;;;8.64;100.00;102025.38;4935119;28;20039;-82
2022/04/14 04:27:01;;;;;;;35.70;19.48;;;;;;;8.65;100.00;102029.75;4962368;28;20442;-81
2022/04/14 04:29:27;;;;;;;33.90;19.50;;;;;;;8.66;100.00;102027.06;4940213;28;20401;-82
2022/04/14 04:31:52;;;;;;;38.65;19.38;;;;;;;8.64;100.00;102025.38;4959521;28;20475;-82
2022/04/14 04:34:18;;;;;;;34.38;18.90;;;;;;;8.63;100.00;102024.50;4928519;28;20045;-82
2022/04/14 04:36:43;;;;;;;33.92;19.67;;;;;;;8.63;100.00;102023.63;4953471;28;20083;-82
2022/04/14 04:39:09;;;;;;;33.92;19.20;;;;;;;8.60;100.00;102032.47;4940178;28;20118;-82
2022/04/14 04:41:34;;;;;;;34.85;19.50;;;;;;;8.61;100.00;102031.56;4943790;28;20038;-82
2022/04/14 04:43:59;;;;;;;34.15;18.80;;;;;;;8.65;100.00;102037.69;4954797;28;20035;-83
2022/04/14 04:46:25;;;;;;;29.05;17.73;;;;;;;8.67;100.00;102041.13;4942333;28;20035;-82
2022/04/14 04:48:50;;;;;;;31.55;18.88;;;;;;;8.65;100.00;102046.44;4957309;28;20046;-82
2022/04/14 04:51:16;;;;;;;35.72;19.42;;;;;;;8.65;100.00;102045.59;4936026;28;20026;-83
2022/04/14 04:53:42;;;;;;;33.10;19.25;;;;;;;8.66;100.00;102042.06;4959427;28;20026;-81
2022/04/14 04:56:07;;;;;;;31.90;19.05;;;;;;;8.67;100.00;102043.78;4937550;29;20031;-82
2022/04/14 04:58:33;;;;;;;32.28;18.48;;;;;;;8.68;100.00;102053.44;4923777;28;20225;-81
2022/04/14 05:00:58;;;;;;;33.97;19.17;;;;;;;8.71;100.00;102056.06;4936117;29;20143;-81
2022/04/14 05:03:24;;;;;;;32.33;18.30;;;;;;;8.73;100.00;102051.59;4913813;28;20031;-82
2022/04/14 05:05:49;;;;;;;31.58;18.17;;;;;;;8.74;100.00;102056.00;4944515;28;20030;-82
2022/04/14 05:08:15;;;;;;;31.00;17.17;;;;;;;8.76;100.00;102069.16;4944576;28;20294;-82
2022/04/14 05:10:41;;;;;;;32.42;18.90;;;;;;;8.76;100.00;102063.88;4957827;28;20117;-82
2022/04/14 05:13:07;;;;;;;33.15;18.25;;;;;;;8.76;100.00;102061.25;4945906;28;20054;-83
2022/04/14 05:15:33;;;;;;;35.70;19.52;;;;;;;8.76;100.00;102067.41;4934693;29;20515;-82
2022/04/14 05:17:58;;;;;;;35.60;18.15;;;;;;;8.78;100.00;102070.88;4922542;29;20036;-82
2022/04/14 05:20:24;;;;;;;30.13;18.33;;;;;;;8.82;100.00;102075.22;4920004;28;20082;-82
2022/04/14 05:22:50;;;;;;;29.08;17.42;;;;;;;8.89;100.00;102080.38;4939116;28;20039;-82
2022/04/14 05:25:15;;;;;;;32.63;17.98;;;;;;;8.93;100.00;102076.81;4967653;28;20030;-83
2022/04/14 05:27:42;;;;;;;30.67;17.65;;;;;;;8.96;100.00;102074.09;4966685;28;20050;-82
2022/04/14 05:30:09;;;;;;;29.55;17.58;;;;;;;8.96;100.00;102072.31;4958176;28;20022;-83
2022/04/14 05:32:39;;;;;;;31.42;18.70;;;;;;;9.01;100.00;102077.53;4947053;28;20041;-82
2022/04/14 05:35:07;;;;;;;30.50;17.15;;;;;;;9.04;100.00;102085.41;4933392;28;20471;-82
2022/04/14 05:37:33;;;;;;;32.95;17.27;;;;;;;9.04;100.00;102072.19;4943880;28;20502;-82
2022/04/14 05:39:58;;;;;;;31.30;16.85;;;;;;;9.12;100.00;102077.34;4941083;28;20027;-82
2022/04/14 05:42:24;;;;;;;30.38;17.20;;;;;;;9.20;100.00;102085.13;4931671;29;20035;-83
2022/04/14 05:44:49;;;;;;;26.35;17.33;;;;;;;9.27;100.00;102087.63;4917572;28;20027;-83
2022/04/14 05:47:15;;;;;;;29.70;16.60;;;;;;;9.32;100.00;102091.03;4950001;28;20038;-83
2022/04/14 05:49:40;;;;;;;30.30;16.23;;;;;;;9.35;100.00;102090.13;4944578;29;20027;-83
2022/04/14 05:52:06;;;;;;;27.95;16.30;;;;;;;9.39;100.00;102090.94;4939329;28;20117;-83
2022/04/14 05:54:31;;;;;;;30.02;16.45;;;;;;;9.44;100.00;102094.34;4937488;28;20058;-83
2022/04/14 05:56:57;;;;;;;33.75;16.95;;;;;;;9.47;100.00;102092.50;4964286;28;20031;-83
2022/04/14 05:59:22;;;;;;;33.47;17.25;;;;;;;9.52;100.00;102082.69;4931201;28;20039;-83
2022/04/14 06:01:47;;;;;;;27.40;15.85;;;;;;;9.59;100.00;102090.50;4960769;28;20038;-83
2022/04/14 06:04:13;;;;;;;26.20;16.70;;;;;;;9.67;100.00;102091.22;4941011;28;20106;-84
2022/04/14 06:06:39;;;;;;;29.45;16.10;;;;;;;9.71;100.00;102087.63;4939425;28;20031;-83
2022/04/14 06:09:05;;;;;;;31.85;16.25;;;;;;;9.78;100.00;102089.22;4922299;29;20043;-83
2022/04/14 06:11:30;;;;;;;31.05;15.85;;;;;;;9.84;100.00;102097.00;4955902;28;20031;-83
2022/04/14 06:13:55;;;;;;;27.48;15.82;;;;;;;9.89;100.00;102101.34;4943266;28;20034;-83
2022/04/14 06:16:21;;;;;;;23.42;14.20;;;;;;;9.98;100.00;102094.06;4935820;28;20038;-83
2022/04/14 06:18:47;;;;;;;24.80;14.93;;;;;;;10.03;100.00;102101.91;4919474;29;20050;-83
2022/04/14 06:21:12;;;;;;;23.67;14.93;;;;;;;10.08;100.00;102091.25;4941487;29;20394;-83
2022/04/14 06:23:38;;;;;;;26.00;14.02;;;;;;;10.13;100.00;102098.16;4943510;28;20042;-89
2022/04/14 06:26:04;;;;;;;25.25;14.15;;;;;;;10.17;100.00;102093.66;4946074;29;20407;-94
2022/04/14 06:28:31;;;;;;;29.48;14.88;;;;;;;10.23;100.00;102097.94;4942964;28;20046;-93
2022/04/14 06:30:57;;;;;;;26.42;13.43;;;;;;;10.33;100.00;102094.16;4979211;28;20027;-92
2022/04/14 06:33:23;;;;;;;25.65;14.02;;;;;;;10.39;100.00;102101.16;4984316;28;20029;-94
2022/04/14 06:35:49;;;;;;;22.38;13.45;;;;;;;10.43;100.00;102095.72;4975728;28;20026;-94
2022/04/14 06:38:15;;;;;;;24.73;13.88;;;;;;;10.52;100.00;102096.41;4955763;28;20037;-93
2022/04/14 06:40:40;;;;;;;28.10;14.05;;;;;;;10.59;100.00;102104.19;4920989;29;20050;-90
2022/04/14 06:43:06;;;;;;;28.10;13.25;;;;;;;10.67;100.00;102108.41;4920750;29;20548;-93
2022/04/14 06:45:31;;;;;;;31.85;14.05;;;;;;;10.79;100.00;102114.28;4932519;28;20066;-92
2022/04/14 06:47:57;;;;;;;26.52;13.85;;;;;;;11.03;100.00;102116.34;4959187;28;20031;-92
2022/04/14 06:50:23;;;;;;;22.63;12.57;;;;;;;11.15;100.00;102119.53;4960385;28;20085;-93
2022/04/14 06:52:51;;;;;;;19.23;12.40;;;;;;;11.19;100.00;102117.66;4923633;28;20031;-92
2022/04/14 06:55:16;;;;;;;30.08;12.43;;;;;;;11.24;100.00;102129.03;4953685;28;20061;-92
2022/04/14 06:57:42;;;;;;;18.65;11.20;;;;;;;11.36;100.00;102122.50;4944634;29;20039;-92
2022/04/14 07:00:08;;;;;;;23.15;12.10;;;;;;;11.43;100.00;102124.09;4923355;29;20535;-92
2022/04/14 07:02:35;;;;;;;18.63;11.57;;;;;;;11.54;100.00;102120.25;4939964;28;20038;-93
2022/04/14 07:05:00;;;;;;;22.42;12.10;;;;;;;11.62;100.00;102128.84;4942483;28;20057;-92
2022/04/14 07:07:26;;;;;;;18.40;11.15;;;;;;;11.64;100.00;102127.91;4938186;29;20036;-93
2022/04/14 07:09:51;;;;;;;19.27;11.88;;;;;;;11.65;100.00;102128.78;4941778;29;20535;-90
2022/04/14 07:12:17;;;;;;;21.65;12.48;;;;;;;11.58;100.00;102129.88;4944405;28;20047;-89
2022/04/14 07:14:42;;;;;;;21.60;11.65;;;;;;;11.57;100.00;102133.41;4947481;28;20023;-89
2022/04/14 07:17:10;;;;;;;18.42;11.38;;;;;;;11.61;100.00;102133.31;4944206;29;20063;-89
2022/04/14 07:19:35;;;;;;;17.98;11.27;;;;;;;11.67;100.00;102126.94;4928497;29;20085;-89
2022/04/14 07:22:01;;;;;;;20.25;11.95;;;;;;;11.70;100.00;102139.25;4960303;29;20471;-90
2022/04/14 07:24:26;;;;;;;18.50;10.95;;;;;;;11.74;100.00;102133.81;4943703;29;20035;-89
2022/04/14 07:26:51;;;;;;;25.02;12.45;;;;;;;11.87;100.00;102136.97;4949504;28;20031;-90
2022/04/14 07:29:17;;;;;;;18.33;10.82;;;;;;;11.97;100.00;102127.00;4911839;29;20031;-90
2022/04/14 07:31:45;;;;;;;18.27;9.93;;;;;;;12.08;99.16;102129.31;4928157;29;20471;-90
2022/04/14 07:34:11;;;;;;;24.75;10.98;;;;;;;12.17;98.13;102123.72;4947310;28;20039;-90
2022/04/14 07:36:40;;;;;;;17.63;10.75;;;;;;;12.19;97.62;102129.00;4962473;28;20086;-88
2022/04/14 07:39:06;;;;;;;16.80;9.70;;;;;;;12.22;97.89;102131.56;4946983;28;20031;-90
2022/04/14 07:41:32;;;;;;;16.58;9.70;;;;;;;12.31;97.75;102135.72;4947192;28;20074;-90
2022/04/14 07:43:58;;;;;;;18.05;9.90;;;;;;;12.42;97.67;102139.75;4963097;28;20502;-90
2022/04/14 07:46:23;;;;;;;17.50;9.23;;;;;;;12.50;97.09;102141.31;4954867;28;20061;-91
2022/04/14 07:48:49;;;;;;;15.57;9.30;;;;;;;12.56;96.69;102157.91;4944131;29;20087;-90
2022/04/14 07:51:14;;;;;;;16.80;9.63;;;;;;;12.62;96.27;102152.41;4928330;29;20395;-89
2022/04/14 07:53:40;;;;;;;17.08;9.90;;;;;;;12.70;95.97;102154.81;4958609;29;20036;-91
2022/04/14 07:56:06;;;;;;;16.77;8.73;;;;;;;12.88;94.56;102148.03;4957962;28;20024;-90
2022/04/14 07:58:32;;;;;;;14.98;9.75;;;;;;;13.00;93.69;102148.53;4941125;29;20517;-90
2022/04/14 08:00:57;;;;;;;21.73;9.25;;;;;;;13.10;93.44;102145.50;4942333;29;20027;-91
2022/04/14 08:03:22;;;;;;;19.15;8.98;;;;;;;13.17;92.69;102137.31;4926799;29;20373;-90
2022/04/14 08:05:48;;;;;;;14.82;8.27;;;;;;;13.18;91.82;102139.91;4943128;29;20039;-90
2022/04/14 08:08:19;;;;;;;19.75;9.38;;;;;;;13.22;92.02;102136.25;4927763;29;20027;-89
2022/04/14 08:10:47;;;;;;;28.67;12.45;;;;;;;13.42;91.52;102135.53;4941095;29;20040;-91
2022/04/14 08:13:13;;;;;;;13.55;8.07;;;;;;;13.54;90.52;102144.88;4955120;28;20130;-91
2022/04/14 08:15:39;;;;;;;17.48;7.53;;;;;;;13.62;89.70;102143.72;4943727;29;20034;-90
2022/04/14 08:18:08;;;;;;;14.70;7.93;;;;;;;13.69;89.45;102134.59;4924378;29;20032;-87
2022/04/14 08:20:35;;;;;;;15.25;7.97;;;;;;;13.71;89.04;102130.94;4921695;29;20031;-90
2022/04/14 08:23:02;;;;;;;15.95;8.65;;;;;;;13.82;89.35;102137.66;4948077;28;20043;-89
2022/04/14 08:25:35;;;;;;;13.68;8.27;;;;;;;14.01;89.40;102133.34;4959829;28;20027;-83
2022/04/14 08:28:03;;;;;;;16.17;8.98;;;;;;;14.09;88.75;102133.06;4956951;29;20467;-85
2022/04/14 08:30:31;;;;;;;16.83;9.35;;;;;;;14.17;87.44;102140.75;4945677;29;20037;-88
2022/04/14 08:33:00;;;;;;;17.10;8.55;;;;;;;14.23;87.53;102145.84;4931990;29;20034;-88
2022/04/14 08:35:26;;;;;;;15.90;8.32;;;;;;;14.38;86.41;102144.38;4955581;28;20027;-88
2022/04/14 08:37:52;;;;;;;15.27;8.75;;;;;;;14.50;85.29;102137.69;4947795;28;20038;-88
2022/04/14 08:40:21;;;;;;;14.82;8.48;;;;;;;14.65;85.98;102133.56;4973746;28;20023;-88
2022/04/14 08:43:00;;;;;;;14.27;8.32;;;;;;;14.73;84.53;102123.44;4976843;28;20411;-88
2022/04/14 08:45:30;;;;;;;16.67;8.50;;;;;;;14.82;84.74;102117.72;4959501;28;20066;-88
2022/04/14 08:47:57;;;;;;;21.23;9.07;;;;;;;14.96;84.07;102116.25;4967833;28;20389;-88
2022/04/14 08:50:24;;;;;;;15.88;8.77;;;;;;;15.11;84.07;102117.41;4948358;28;20094;-87
2022/04/14 08:52:50;;;;;;;14.88;8.32;;;;;;;15.21;82.49;102114.25;4958763;28;20060;-87
2022/04/14 08:55:17;;;;;;;16.50;8.20;;;;;;;15.29;82.18;102108.56;4940254;29;20531;-88
2022/04/14 08:57:44;;;;;;;15.82;8.93;;;;;;;15.44;81.49;102108.84;4944458;29;20036;-88
2022/04/14 09:00:13;;;;;;;14.65;8.27;;;;;;;15.53;81.17;102106.59;4943062;28;20470;-88
2022/04/14 09:02:43;;;;;;;14.52;7.55;;;;;;;15.87;80.81;102110.44;4957421;28;20434;-88
2022/04/14 09:05:09;;;;;;;13.55;7.80;;;;;;;16.18;79.16;102100.09;4973195;28;20038;-86
2022/04/14 09:07:35;;;;;;;18.77;8.93;;;;;;;16.42;77.98;102099.81;4940327;28;20070;-85
2022/04/14 09:10:01;;;;;;;11.45;7.60;;;;;;;16.53;76.37;102101.03;4949728;28;20044;-85
2022/04/14 09:12:29;;;;;;;14.73;7.80;;;;;;;16.66;75.72;102105.75;4917183;29;20082;-84
2022/04/14 09:14:54;;;;;;;14.68;7.35;;;;;;;16.84;76.21;102112.84;4925127;29;20039;-84
2022/04/14 09:17:20;;;;;;;15.48;7.65;;;;;;;17.14;77.21;102114.91;4893844;29;20088;-85
2022/04/14 09:19:45;;;;;;;15.35;7.85;;;;;;;17.53;73.96;102131.59;4917192;29;20170;-84
2022/04/14 09:22:14;;;;;;;16.35;7.32;;;;;;;18.21;73.31;102132.41;4907772;29;20067;-84
2022/04/14 09:24:50;;;;;;;12.05;5.70;;;;;;;18.94;66.62;102134.47;4920009;29;20468;-86
2022/04/14 09:27:29;;;;;;;9.48;6.00;;;;;;;20.28;62.60;102149.50;4919948;29;20127;-86
2022/04/14 09:30:00;;;;;;;13.75;6.22;;;;;;;21.80;55.83;102148.19;4940595;29;20024;-84
2022/04/14 09:32:32;;;;;;;15.18;6.65;;;;;;;21.86;54.35;102150.44;4916150;29;20438;-85
2022/04/14 09:34:59;;;;;;;9.25;5.63;;;;;;;22.55;50.09;102167.97;4936935;29;20107;-87
2022/04/14 09:37:26;;;;;;;10.60;5.93;;;;;;;23.26;49.28;102161.72;4919938;29;20118;-85
2022/04/14 09:40:02;;;;;;;12.38;6.07;;;;;;;24.31;44.54;102172.31;4936621;29;20019;-85
2022/04/14 09:42:33;;;;;;;11.45;5.97;;;;;;;24.19;44.95;102166.06;4936778;29;20071;-85
2022/04/14 09:45:20;;;;;;;13.18;6.97;;;;;;;23.56;44.27;102159.31;4919022;29;20076;-87
2022/04/14 09:47:47;;;;;;;13.43;6.90;;;;;;;23.20;45.92;102165.78;4919773;29;20123;-85
2022/04/14 09:50:32;;;;;;;13.30;6.20;;;;;;;22.74;46.41;102164.75;4905590;29;20032;-85
2022/04/14 09:53:21;;;;;;;10.65;5.93;;;;;;;22.80;48.00;102163.41;4947444;29;20034;-87
2022/04/14 09:55:49;;;;;;;10.32;5.63;;;;;;;22.71;46.73;102165.84;4919648;29;20034;-86
2022/04/14 09:58:18;;;;;;;9.13;4.70;;;;;;;21.23;49.06;102176.44;4937498;29;20039;-86
2022/04/14 10:00:55;;;;;;;8.13;3.53;;;;;;;20.11;53.34;102170.28;4919832;29;20078;-84
2022/04/14 10:03:25;;;;;;;11.75;5.15;;;;;;;19.38;60.74;102178.41;4926746;29;20091;-91
2022/04/14 10:05:53;;;;;;;10.33;5.13;;;;;;;18.76;59.08;102173.97;4937333;29;20055;-87
2022/04/14 10:08:19;;;;;;;10.32;4.50;;;;;;;18.57;59.27;102164.31;4935019;29;20028;-85
2022/04/14 10:10:46;;;;;;;9.93;4.50;;;;;;;18.76;58.50;102168.59;4947597;28;20092;-85
2022/04/14 10:13:14;;;;;;;10.13;5.20;;;;;;;19.16;57.08;102167.13;4956566;28;20110;-84
2022/04/14 10:15:42;;;;;;;8.25;4.70;;;;;;;19.52;57.15;102164.16;4974439;28;20030;-82
2022/04/14 10:18:10;;;;;;;8.95;5.47;;;;;;;20.57;52.94;102160.19;4941325;28;20483;-85
2022/04/14 10:20:37;;;;;;;11.10;4.63;;;;;;;22.40;49.51;102160.03;4974475;28;20459;-85
2022/04/14 10:23:03;;;;;;;8.70;5.65;;;;;;;23.80;43.94;102160.16;4941857;28;20054;-90
2022/04/14 10:25:30;;;;;;;11.13;4.82;;;;;;;24.82;41.45;102163.56;4938149;29;20126;-85
2022/04/14 10:27:59;;;;;;;12.07;5.00;;;;;;;24.31;43.23;102175.91;4973608;28;20035;-85
2022/04/14 10:30:26;;;;;;;14.07;5.10;;;;;;;22.81;45.82;102174.09;4926444;28;20478;-86
2022/04/14 10:32:57;;;;;;;16.80;5.03;;;;;;;21.36;51.81;102173.75;4957605;28;20033;-87
2022/04/14 10:35:24;;;;;;;9.13;4.90;;;;;;;21.27;52.57;102177.94;4958022;28;20117;-88
2022/04/14 10:38:01;;;;;;;12.05;5.22;;;;;;;21.78;50.92;102174.41;4956576;28;20808;-88
2022/04/14 10:40:29;;;;;;;12.15;5.35;;;;;;;22.07;50.45;102169.63;4973353;28;20391;-88
2022/04/14 10:42:56;;;;;;;13.02;5.57;;;;;;;22.86;46.47;102185.41;4956752;28;20038;-87
2022/04/14 10:45:23;;;;;;;12.05;5.55;;;;;;;22.94;47.95;102179.41;4969838;28;20043;-87
2022/04/14 10:47:56;;;;;;;10.60;5.50;;;;;;;23.32;44.17;102178.31;4950081;28;20493;-86
2022/04/14 10:50:23;;;;;;;10.07;5.35;;;;;;;22.18;46.97;102178.75;4969774;28;20085;-87
2022/04/14 10:53:01;;;;;;;9.75;6.07;;;;;;;21.04;50.07;102172.28;4973470;28;20023;-86
2022/04/14 10:55:56;;;;;;;12.13;5.50;;;;;;;21.24;50.80;102178.13;4974149;28;20026;-86
2022/04/14 10:58:36;;;;;;;9.65;5.10;;;;;;;21.81;49.48;102168.78;4940814;28;20126;-86
2022/04/14 11:01:03;;;;;;;14.77;5.37;;;;;;;21.67;51.42;102174.31;4955677;28;20038;-86
2022/04/14 11:04:24;;;;;;;7.40;4.28;;;;;;;22.19;48.96;102186.72;4948018;28;20332;-85
2022/04/14 11:06:51;;;;;;;7.50;4.35;;;;;;;22.16;47.18;102175.28;4875845;29;20036;-84
2022/04/14 11:09:41;;;;;;;9.38;4.20;;;;;;;21.50;49.04;102183.56;4932706;28;20101;-85